Latest Weather Observations for Avalon

IDV60901

Issued at 9:25 pm EST Wednesday 17 September 2014 (issued every 10 minutes, with the page automatically refreshed every 10 minutes)

About weather observations | Map of Melbourne area stations | Latest observations for Melbourne area | Other Formats
Station Details ID: 087113 Name: AVALON AIRPORT Lat: -38.03 Lon: 144.48 Height: 10.6 m
Data from the previous 72 hours. | See also: Recent months at Avalon
Date/Time
EST
Tmp

°C
App
Tmp
°C
Dew
Point
°C
Rel
Hum
%
Delta-T

°C
Wind Press
QNH
hPa
Press
MSL
hPa
Rain
since
9 am
mm
Dir
 
Spd
km/h
Gust
km/h
Spd
kts
Gust
kts
17/09:00pm 6.7 2.3 4.9 88 0.8 WNW 17 20 9 11 1019.3 1019.3 0.8
17/08:30pm 7.7 3.3 4.7 81 1.3 W 17 22 9 12 1019.1 1019.1 0.8
17/08:00pm 8.1 4.2 5.4 83 1.2 W 15 20 8 11 1019.0 1019.0 0.8
17/07:30pm 8.0 4.0 5.1 82 1.3 W 15 19 8 10 1018.6 1018.6 0.8
17/07:00pm 8.1 3.7 4.9 80 1.4 W 17 24 9 13 1018.4 1018.4 0.8
17/06:30pm 8.2 3.4 4.6 78 1.6 W 19 26 10 14 1018.0 1018.0 0.8
17/06:00pm 9.4 4.3 5.8 78 1.6 W 22 32 12 17 1017.8 1017.8 0.8
17/05:30pm 9.8 5.1 6.2 78 1.7 W 20 30 11 16 1017.1 1017.1 0.8
17/05:00pm 11.7 5.1 4.0 59 3.4 W 28 43 15 23 1016.6 1016.6 0.8
17/04:30pm 11.5 2.6 2.8 55 3.8 WSW 39 50 21 27 1016.2 1016.2 0.8
17/04:03pm 12.2 4.2 3.9 57 3.7 WSW 35 54 19 29 1015.7 1015.7 0.8
17/04:00pm 13.2 5.4 4.9 57 3.8 WSW 35 48 19 26 1015.6 1015.6 0.8
17/03:30pm 12.0 6.3 6.7 70 2.5 W 26 37 14 20 1015.3 1015.3 0.8
17/03:10pm 11.4 5.1 7.5 77 1.9 W 30 39 16 21 1015.2 1015.2 0.8
17/03:04pm 10.9 4.0 7.4 79 1.7 WSW 33 52 18 28 1015.2 1015.2 0.8
17/03:00pm 10.6 2.6 7.5 81 1.5 W 39 56 21 30 1015.2 1015.2 0.8
17/02:59pm 10.6 2.7 7.7 82 1.4 W 39 57 21 31 1015.2 1015.2 0.8
17/02:54pm 10.1 1.5 6.6 79 1.6 WSW 41 57 22 31 1015.3 1015.3 0.6
17/02:30pm 12.1 3.6 6.8 70 2.5 WSW 41 56 22 30 1014.9 1014.9 0.4
17/02:20pm 11.9 4.4 6.4 69 2.6 WSW 35 56 19 30 1014.8 1014.8 0.4
17/02:00pm 13.2 6.1 7.9 70 2.6 W 35 50 19 27 1014.6 1014.6 0.4
17/01:30pm 14.1 5.6 5.2 55 4.2 W 39 61 21 33 1014.3 1014.3 0.4
17/01:25pm 13.8 4.5 4.9 55 4.1 W 43 61 23 33 1014.3 1014.3 0.4
17/01:00pm 13.4 3.1 2.9 49 4.7 W 46 63 25 34 1014.1 1014.1 0.4
17/12:30pm 14.2 3.9 2.5 45 5.2 W 46 57 25 31 1014.0 1014.0 0.4
17/12:01pm 13.6 7.6 6.9 64 3.2 W 28 46 15 25 1014.0 1014.0 0.4
17/12:00pm 13.6 7.9 8.4 71 2.6 W 28 39 15 21 1014.0 1014.0 0.4
17/11:50am 11.9 6.2 8.4 79 1.7 W 28 35 15 19 1014.1 1014.1 0.4
17/11:33am 10.1 0.9 6.3 77 1.8 W 44 72 24 39 1014.3 1014.3 0.4
17/11:30am 13.7 5.1 6.3 61 3.5 W 41 69 22 37 1014.1 1014.1 0.0
17/11:18am 14.1 5.7 5.7 57 4.0 W 39 57 21 31 1013.8 1013.8 0.0
17/11:00am 14.3 5.1 5.4 55 4.2 W 43 56 23 30 1013.8 1013.8 0.0
17/10:36am 13.8 5.8 5.9 59 3.7 W 37 56 20 30 1013.9 1013.9 0.0
17/10:30am 14.5 6.8 7.3 62 3.5 W 37 52 20 28 1014.0 1014.0 0.0
17/10:04am 13.4 5.8 6.0 61 3.5 W 35 54 19 29 1013.9 1013.9 0.0
17/10:00am 13.6 6.2 6.7 63 3.3 W 35 44 19 24 1013.8 1013.8 0.0
17/09:30am 13.4 6.2 7.8 69 2.8 W 35 46 19 25 1013.8 1013.8 0.0
17/09:00am 12.2 4.9 7.1 71 2.5 W 35 46 19 25 1013.7 1013.7 0.0
17/08:30am 11.7 5.9 7.8 77 1.9 WNW 28 37 15 20 1013.7 1013.7 0.0
17/08:00am 10.9 4.6 7.4 79 1.7 WNW 30 37 16 20 1013.6 1013.6 0.0
17/07:30am 9.9 3.6 7.2 83 1.3 WNW 30 41 16 22 1013.3 1013.3 0.0
17/07:00am 8.7 3.0 6.7 87 0.9 WNW 26 33 14 18 1013.0 1013.0 0.0
17/06:30am 8.8 2.7 6.8 87 0.9 WNW 28 35 15 19 1012.8 1012.8 0.0
17/06:00am 9.1 2.8 7.4 89 0.8 W 30 39 16 21 1012.7 1012.7 0.0
17/05:30am 9.5 2.7 7.9 90 0.8 WNW 33 43 18 23 1012.5 1012.5 0.0
17/05:22am 9.4 2.7 8.0 91 0.7 WNW 33 43 18 23 1012.4 1012.4 0.0
17/05:10am 9.5 2.4 8.1 91 0.7 WNW 35 46 19 25 1012.4 1012.4 0.0
17/05:00am 9.4 2.6 7.5 88 0.9 WNW 33 44 18 24 1012.3 1012.3 0.0
17/04:30am 9.9 4.8 7.8 87 1.0 WNW 24 30 13 16 1012.1 1012.1 0.0
17/04:00am 10.0 5.0 8.1 88 0.9 WNW 24 35 13 19 1012.2 1012.2 0.0
17/03:30am 9.6 6.6 7.9 89 0.8 NW 13 15 7 8 1012.3 1012.3 0.0
17/03:00am 9.3 6.3 7.7 90 0.8 NW 13 19 7 10 1012.6 1012.6 0.0
17/02:30am 9.0 5.6 7.6 91 0.7 NW 15 17 8 9 1012.6 1012.6 0.0
17/02:00am 8.6 4.8 7.5 93 0.5 NW 17 20 9 11 1012.7 1012.7 0.0
17/01:30am 7.8 3.3 6.9 94 0.4 NW 20 22 11 12 1012.9 1012.9 0.0
17/01:00am 7.4 3.4 6.5 94 0.4 NW 17 19 9 10 1013.2 1013.2 0.0
17/12:30am 7.6 3.9 6.5 93 0.5 NW 15 19 8 10 1013.3 1013.3 0.0
17/12:00am 8.2 4.3 7.0 92 0.6 NW 17 19 9 10 1013.2 1013.2 0.0
 
Date/Time
EST
Tmp

°C
App
Tmp
°C
Dew
Point
°C
Rel
Hum
%
Delta-T

°C
Wind Press
QNH
hPa
Press
MSL
hPa
Rain
since
9 am
mm
Dir
 
Spd
km/h
Gust
km/h
Spd
kts
Gust
kts
16/11:30pm 7.4 4.4 6.2 92 0.5 NW 11 15 6 8 1013.2 1013.2 0.0
16/11:00pm 7.6 5.6 6.2 91 0.6 WNW 6 7 3 4 1013.5 1013.5 0.0
16/10:30pm 8.0 5.9 6.8 92 0.6 W 7 11 4 6 1013.8 1013.8 0.0
16/10:00pm 7.2 4.1 5.5 89 0.8 NW 11 13 6 7 1013.9 1013.9 0.0
16/09:30pm 8.5 4.1 6.5 87 0.9 NW 19 22 10 12 1013.8 1013.8 0.0
16/09:00pm 7.7 4.0 6.2 90 0.7 WNW 15 17 8 9 1013.7 1013.7 0.0
16/08:30pm 6.7 3.1 4.9 88 0.8 WNW 13 17 7 9 1013.6 1013.6 0.0
16/08:00pm 7.8 4.7 5.4 85 1.1 W 11 15 6 8 1013.5 1013.5 0.0
16/07:30pm 7.9 4.3 5.2 83 1.2 W 13 13 7 7 1013.3 1013.3 0.0
16/07:00pm 9.9 6.2 6.1 77 1.8 W 15 17 8 9 1012.9 1012.9 0.0
16/06:30pm 11.4 6.9 6.3 71 2.4 W 19 26 10 14 1012.7 1012.7 0.0
16/06:00pm 12.5 8.6 7.0 69 2.6 W 17 26 9 14 1012.4 1012.4 0.0
16/05:30pm 14.3 8.7 7.1 62 3.5 W 26 35 14 19 1012.0 1012.0 0.0
16/05:00pm 15.4 9.7 8.2 62 3.6 WSW 28 37 15 20 1011.5 1011.5 0.0
16/04:30pm 14.4 10.7 9.6 73 2.5 SW 19 32 10 17 1011.3 1011.3 0.0
16/04:00pm 13.7 8.8 9.9 78 2.0 W 26 37 14 20 1011.1 1011.1 0.0
16/03:30pm 14.3 8.8 9.3 72 2.6 W 28 37 15 20 1010.8 1010.8 0.0
16/03:00pm 14.7 11.5 9.9 73 2.5 WSW 17 30 9 16 1010.6 1010.6 0.0
16/02:30pm 13.3 10.3 10.5 83 1.5 WSW 17 22 9 12 1010.5 1010.5 0.0
16/02:00pm 13.9 8.6 9.9 77 2.1 SW 28 35 15 19 1010.2 1010.2 0.0
16/01:30pm 13.4 7.8 10.0 80 1.8 SW 30 37 16 20 1010.1 1010.1 0.0
16/01:00pm 12.9 7.0 11.3 90 0.8 SW 33 41 18 22 1010.2 1010.2 0.0
16/12:30pm 14.3 8.2 11.6 84 1.4 SSW 35 44 19 24 1010.0 1010.0 0.0
16/12:00pm 14.2 9.3 11.4 83 1.5 SSW 28 35 15 19 1010.3 1010.3 0.0
16/11:30am 14.8 10.6 11.0 78 2.0 SW 24 32 13 17 1010.3 1010.3 0.0
16/11:00am 14.2 9.7 11.4 83 1.5 WSW 26 33 14 18 1010.4 1010.4 0.0
16/10:30am 14.5 10.8 11.6 83 1.6 WSW 22 30 12 16 1010.3 1010.3 0.0
16/10:00am 13.8 10.0 11.1 84 1.4 W 22 30 12 16 1010.2 1010.2 0.0
16/09:30am 13.8 10.0 11.3 85 1.3 W 22 30 12 16 1010.1 1010.1 0.0
16/09:00am 13.0 9.6 11.2 89 0.9 W 20 28 11 15 1010.1 1010.1 0.2
16/08:30am 12.4 9.2 11.1 92 0.7 W 19 24 10 13 1009.9 1009.9 0.2
16/08:00am 12.0 8.6 11.2 95 0.4 W 20 26 11 14 1009.6 1009.6 0.2
16/07:30am 11.7 8.4 10.9 95 0.4 W 19 24 10 13 1009.3 1009.3 0.2
16/07:00am 11.7 8.4 10.9 95 0.4 W 19 28 10 15 1009.3 1009.3 0.2
16/06:30am 11.7 9.5 10.8 94 0.5 W 13 17 7 9 1008.9 1008.9 0.2
16/06:00am 12.0 9.5 10.9 93 0.6 WSW 15 17 8 9 1008.7 1008.7 0.2
16/05:30am 12.1 10.0 11.0 93 0.6 WSW 13 17 7 9 1008.5 1008.5 0.2
16/05:01am 12.0 10.4 11.4 96 0.3 SW 11 13 6 7 1008.4 1008.4 0.2
16/05:00am 12.0 10.4 11.4 96 0.3 SW 11 13 6 7 1008.4 1008.4 0.2
16/04:30am 12.0 10.1 11.8 99 0.1 SW 13 17 7 9 1008.3 1008.3 0.2
16/04:00am 11.5 9.8 11.3 99 0.1 SW 11 15 6 8 1007.8 1007.8 0.2
16/03:30am 11.3 9.6 11.1 99 0.1 SSW 11 15 6 8 1007.6 1007.6 0.2
16/03:00am 11.2 9.3 10.6 96 0.3 S 11 13 6 7 1007.7 1007.7 0.2
16/02:30am 11.7 10.4 11.1 96 0.3 S 9 13 5 7 1007.9 1007.9 0.2
16/02:00am 11.8 10.4 11.0 95 0.4 S 9 11 5 6 1008.3 1008.3 0.0
16/01:30am 11.5 9.7 10.7 95 0.4 SSE 11 17 6 9 1008.5 1008.5 0.0
16/01:00am 11.2 8.9 10.4 95 0.4 SSE 13 17 7 9 1008.8 1008.8 0.0
16/12:59am 11.2 8.9 10.4 95 0.4 SSE 13 17 7 9 1008.8 1008.8 0.0
16/12:30am 11.0 9.4 10.2 95 0.4 S 9 11 5 6 1009.1 1009.1 0.0
16/12:00am 11.7 9.9 10.8 94 0.5 SE 11 13 6 7 1009.1 1009.1 0.0
 
Date/Time
EST
Tmp

°C
App
Tmp
°C
Dew
Point
°C
Rel
Hum
%
Delta-T

°C
Wind Press
QNH
hPa
Press
MSL
hPa
Rain
since
9 am
mm
Dir
 
Spd
km/h
Gust
km/h
Spd
kts
Gust
kts
15/11:30pm 11.4 9.8 10.3 93 0.6 S 9 13 5 7 1009.4 1009.4 0.0
15/11:27pm 11.4 9.8 10.1 92 0.7 SSE 9 13 5 7 1009.4 1009.4 0.0
15/11:00pm 11.9 10.0 10.6 92 0.7 SE 11 15 6 8 1009.7 1009.7 0.0
15/10:47pm 11.9 9.6 10.3 90 0.8 SSE 13 19 7 10 1009.6 1009.6 0.0
15/10:30pm 12.5 10.3 10.9 90 0.8 SE 13 20 7 11 1009.6 1009.6 0.0
15/10:07pm 12.6 9.7 11.0 90 0.8 SE 17 24 9 13 1009.8 1009.8 0.0
15/10:00pm 12.8 9.4 11.2 90 0.8 SE 20 22 11 12 1009.8 1009.8 0.0
15/09:50pm 12.9 10.4 11.1 89 0.9 SSE 15 19 8 10 1010.1 1010.1 0.0
15/09:30pm 12.8 11.1 11.2 90 0.8 SSE 11 19 6 10 1010.3 1010.3 0.0
15/09:00pm 13.2 10.8 11.3 88 1.0 ESE 15 20 8 11 1010.0 1010.0 0.0
15/08:30pm 13.2 10.8 11.3 88 1.0 ESE 15 20 8 11 1010.0 1010.0 0.0
15/08:00pm 13.3 11.3 11.4 88 1.0 ESE 13 15 7 8 1009.9 1009.9 0.0
15/07:30pm 13.3 11.5 11.0 86 1.2 E 11 15 6 8 1010.0 1010.0 0.0
15/07:00pm 12.8 11.9 11.5 92 0.7 SSE 7 11 4 6 1010.1 1010.1 0.0
15/06:30pm 12.9 12.3 11.6 92 0.7 SSE 6 9 3 5 1010.0 1010.0 0.0
15/06:00pm 13.5 12.8 11.9 90 0.9 SSE 7 9 4 5 1010.1 1010.1 0.0
15/05:30pm 13.9 11.7 12.1 89 1.0 ESE 15 20 8 11 1009.9 1009.9 0.0
15/05:00pm 14.0 10.4 11.7 86 1.2 SE 22 32 12 17 1009.7 1009.7 0.0
15/04:30pm 14.1 10.5 11.8 86 1.2 ESE 22 28 12 15 1009.7 1009.7 0.0
15/04:00pm 14.2 11.0 11.4 83 1.5 SE 19 24 10 13 1010.2 1010.2 0.0
15/03:30pm 14.8 11.4 11.4 80 1.8 SE 20 28 11 15 1010.4 1010.4 0.0
15/03:00pm 14.2 10.8 11.4 83 1.5 SE 20 26 11 14 1010.7 1010.7 0.0
15/02:30pm 14.2 10.8 11.2 82 1.6 ESE 20 24 11 13 1011.3 1011.3 0.0
15/02:00pm 14.4 11.2 11.2 81 1.7 ESE 19 24 10 13 1011.5 1011.5 0.0
15/01:30pm 13.4 10.4 10.6 83 1.5 ESE 17 20 9 11 1012.2 1012.2 0.0
15/01:00pm 13.3 9.7 10.7 84 1.4 SE 20 22 11 12 1012.6 1012.6 0.0
15/12:30pm 12.9 8.9 10.3 84 1.3 ESE 22 26 12 14 1013.1 1013.1 0.0
15/12:00pm 13.1 8.7 10.3 83 1.4 ESE 24 28 13 15 1013.6 1013.6 0.0
15/11:30am 13.3 9.4 10.7 84 1.4 ESE 22 28 12 15 1014.1 1014.1 0.0
15/11:00am 12.8 9.3 10.3 85 1.3 ESE 19 24 10 13 1014.8 1014.8 0.0
15/10:46am 12.4 8.7 10.3 87 1.1 E 20 24 11 13 1015.1 1015.1 0.0
15/10:30am 12.4 8.9 11.0 91 0.7 ESE 20 24 11 13 1015.2 1015.2 0.0
15/10:04am 12.3 9.0 11.0 92 0.7 ESE 19 22 10 12 1015.6 1015.6 0.0
15/10:00am 12.0 8.6 10.6 91 0.7 ESE 19 22 10 12 1015.7 1015.7 0.0
15/09:41am 11.9 8.5 10.6 92 0.7 ESE 19 20 10 11 1016.1 1016.1 0.0
15/09:30am 12.2 9.3 10.9 92 0.7 E 17 20 9 11 1016.3 1016.3 0.0
15/09:00am 11.9 9.4 11.1 95 0.4 E 15 19 8 10 1016.5 1016.5 0.8
15/08:30am 11.8 9.7 11.2 96 0.3 E 13 15 7 8 1016.8 1016.8 0.8
15/08:00am 11.6 9.5 11.3 98 0.2 E 13 17 7 9 1016.7 1016.7 0.8
15/07:30am 11.1 9.3 10.9 99 0.1 E 11 13 6 7 1016.6 1016.6 0.8
15/07:00am 10.5 8.2 10.3 99 0.1 E 13 15 7 8 1016.3 1016.3 0.8
15/06:30am 10.0 8.9 9.9 99 0.1 ESE 6 7 3 4 1016.3 1016.3 0.8
15/06:00am 9.7 8.3 9.6 99 0.0 SW 7 9 4 5 1016.8 1016.8 0.6
15/05:30am 9.7 8.5 9.6 99 0.0 WNW 6 9 3 5 1016.9 1016.9 0.0
15/05:00am 9.4 8.5 9.3 99 0.0 W 4 7 2 4 1016.6 1016.6 0.0
15/04:34am 9.3 7.8 9.2 99 0.0 SW 7 9 4 5 1017.0 1017.0 0.0
15/04:30am 9.2 7.9 9.1 99 0.0 WSW 6 9 3 5 1016.9 1016.9 0.0
15/04:00am 9.5 7.7 9.4 99 0.0 NNW 9 13 5 7 1016.9 1016.9 0.0
15/03:30am 8.8 8.1 8.7 99 0.0 SSE 2 6 1 3 1016.7 1016.7 0.0
15/03:00am 8.9 7.5 8.8 99 0.0 ENE 6 7 3 4 1016.6 1016.6 0.0
15/02:38am 9.5 8.1 9.4 99 0.0 NNE 7 9 4 5 1017.0 1017.0 0.0
15/02:30am 9.3 7.8 9.2 99 0.0 N 7 9 4 5 1017.3 1017.3 0.0
15/02:00am 9.2 7.9 9.1 99 0.0 N 6 9 3 5 1017.8 1017.8 0.0
15/01:30am 9.9 8.6 9.8 99 0.1 NNE 7 9 4 5 1017.9 1017.9 0.0
15/01:00am 8.9 6.9 8.8 99 0.0 N 9 11 5 6 1018.6 1018.6 0.0
15/12:30am 8.3 6.5 8.0 98 0.1 NNW 7 9 4 5 1019.0 1019.0 0.0
15/12:00am 8.8 8.5 8.5 98 0.1 CALM 0 0 0 0 1019.0 1019.0 0.0
 
Date/Time
EST
Tmp

°C
App
Tmp
°C
Dew
Point
°C
Rel
Hum
%
Delta-T

°C
Wind Press
QNH
hPa
Press
MSL
hPa
Rain
since
9 am
mm
Dir
 
Spd
km/h
Gust
km/h
Spd
kts
Gust
kts
14/11:30pm 9.4 9.2 9.1 98 0.1 CALM 0 0 0 0 1019.3 1019.3 0.0
14/11:00pm 9.1 8.0 8.6 97 0.2 WNW 4 6 2 3 1019.6 1019.6 0.0
14/10:30pm 9.0 7.3 8.5 97 0.2 NW 7 11 4 6 1020.0 1020.0 0.0
14/10:00pm 9.2 7.2 8.7 97 0.2 N 9 11 5 6 1020.0 1020.0 0.0
14/09:30pm 9.0 8.5 7.9 93 0.5 CALM 0 0 0 0 1019.8 1019.8 0.0

Latest Capital City Observations: Canberra | Sydney | Melbourne | Brisbane | Adelaide | Perth | Hobart | Darwin

Other Formats:

Comma delimited format used in spreadsheet applications
http://www.bom.gov.au/fwo/IDV60901/IDV60901.94854.axf

JavaScript Object Notation format (JSON) in row-major order
http://www.bom.gov.au/fwo/IDV60901/IDV60901.94854.json